createdAt,value
2017-11-17T00:00:49.697Z,45.53
2017-11-17T00:03:17.182Z,47.33
2017-11-17T00:05:45.454Z,47.97
2017-11-17T00:08:12.934Z,48.70
2017-11-17T00:10:40.444Z,48.50
2017-11-17T00:13:07.924Z,49.40
2017-11-17T00:15:35.424Z,45.40
2017-11-17T00:18:02.905Z,47.37
2017-11-17T00:20:30.412Z,41.70
2017-11-17T00:22:57.896Z,47.23
2017-11-17T00:25:25.394Z,42.40
2017-11-17T00:27:52.873Z,47.13
2017-11-17T00:30:20.356Z,49.20
2017-11-17T00:32:47.861Z,47.87
2017-11-17T00:35:15.341Z,46.40
2017-11-17T00:37:42.837Z,45.70
2017-11-17T00:40:10.321Z,49.03
2017-11-17T00:42:37.824Z,47.80
2017-11-17T00:45:06.072Z,41.03
2017-11-17T00:47:33.577Z,51.47
2017-11-17T00:50:01.834Z,45.13
2017-11-17T00:52:29.331Z,47.23
2017-11-17T00:54:56.813Z,45.97
2017-11-17T00:57:25.090Z,44.40
2017-11-17T00:59:53.346Z,41.80
2017-11-17T01:02:20.849Z,42.27
2017-11-17T01:04:48.328Z,49.47
2017-11-17T01:07:16.605Z,44.93
2017-11-17T01:09:44.085Z,46.20
2017-11-17T01:12:12.349Z,44.90
2017-11-17T01:14:39.833Z,45.17
2017-11-17T01:17:07.321Z,45.83
2017-11-17T01:19:34.825Z,51.23
2017-11-17T01:22:02.305Z,45.53
2017-11-17T01:24:29.808Z,43.90
2017-11-17T01:26:57.289Z,43.00
2017-11-17T01:29:25.557Z,50.63
2017-11-17T01:31:53.050Z,47.50
2017-11-17T01:34:21.322Z,43.17
2017-11-17T01:36:48.813Z,47.83
2017-11-17T01:39:17.080Z,42.43
2017-11-17T01:41:44.562Z,46.53
2017-11-17T01:44:12.837Z,45.77
2017-11-17T01:46:40.313Z,42.87
2017-11-17T01:49:07.820Z,48.90
2017-11-17T01:51:35.305Z,46.27
2017-11-17T01:54:02.818Z,45.50
2017-11-17T01:56:30.302Z,45.50
2017-11-17T01:58:58.580Z,45.90
2017-11-17T02:01:26.057Z,43.57
2017-11-17T02:03:54.320Z,46.23
2017-11-17T02:06:21.811Z,47.57
2017-11-17T02:08:49.325Z,52.97
2017-11-17T02:11:16.812Z,50.40
2017-11-17T02:13:44.324Z,47.10
2017-11-17T02:16:11.811Z,47.17
2017-11-17T02:18:39.317Z,46.20
2017-11-17T02:21:06.817Z,51.37
2017-11-17T02:23:34.312Z,50.43
2017-11-17T02:26:02.585Z,52.90
2017-11-17T02:28:30.077Z,44.13
2017-11-17T02:30:58.346Z,53.33
2017-11-17T02:33:25.834Z,60.97
2017-11-17T02:35:54.106Z,51.67
2017-11-17T02:38:22.357Z,47.80
2017-11-17T02:40:49.871Z,51.80
2017-11-17T02:43:18.117Z,53.77
2017-11-17T02:45:45.617Z,47.40
2017-11-17T02:48:13.105Z,44.47
2017-11-17T02:50:41.377Z,50.13
2017-11-17T02:53:08.860Z,56.27
2017-11-17T02:55:37.130Z,48.40
2017-11-17T02:58:04.612Z,53.30
2017-11-17T03:00:32.889Z,50.43
2017-11-17T03:03:00.377Z,43.40
2017-11-17T03:05:28.644Z,52.07
2017-11-17T03:07:56.133Z,54.77
2017-11-17T03:10:24.397Z,49.47
2017-11-17T03:12:51.890Z,48.07
2017-11-17T03:15:20.168Z,54.10
2017-11-17T03:17:47.649Z,50.00
2017-11-17T03:20:15.961Z,48.13
2017-11-17T03:22:43.449Z,52.57
2017-11-17T03:25:10.962Z,43.60
2017-11-17T03:27:38.464Z,51.60
2017-11-17T03:30:05.944Z,52.57
2017-11-17T03:32:33.457Z,42.83
2017-11-17T03:35:00.937Z,52.73
2017-11-17T03:37:28.442Z,44.53
2017-11-17T03:39:55.928Z,49.00
2017-11-17T03:42:23.433Z,46.10
2017-11-17T03:44:50.913Z,61.20
2017-11-17T03:47:18.414Z,43.93
2017-11-17T03:49:46.673Z,52.80
2017-11-17T03:52:14.177Z,50.27
2017-11-17T03:54:41.673Z,47.43
2017-11-17T03:57:09.169Z,41.83
2017-11-17T03:59:36.650Z,52.90
2017-11-17T04:02:04.148Z,45.63
2017-11-17T04:04:32.397Z,46.27
2017-11-17T04:06:59.898Z,50.83
2017-11-17T04:09:27.384Z,44.43
2017-11-17T04:11:55.654Z,46.17
2017-11-17T04:14:23.905Z,53.07
2017-11-17T04:16:51.413Z,42.50
2017-11-17T04:19:18.894Z,44.83
2017-11-17T04:21:47.153Z,46.10
2017-11-17T04:24:14.632Z,46.93
2017-11-17T04:26:42.132Z,46.03
2017-11-17T04:29:09.632Z,40.80
2017-11-17T04:31:37.117Z,44.83
2017-11-17T04:34:04.625Z,41.73
2017-11-17T04:36:32.876Z,45.07
2017-11-17T04:39:00.395Z,45.33
2017-11-17T04:41:28.646Z,57.17
2017-11-17T04:43:56.149Z,50.57
2017-11-17T04:46:24.393Z,56.83
2017-11-17T04:48:51.897Z,57.30
2017-11-17T04:51:20.151Z,45.23
2017-11-17T04:53:47.653Z,46.20
2017-11-17T04:56:15.132Z,45.10
2017-11-17T04:58:43.395Z,45.13
2017-11-17T05:01:10.884Z,49.17
2017-11-17T05:03:39.150Z,50.33
2017-11-17T05:06:06.624Z,48.03
2017-11-17T05:08:34.125Z,46.93
2017-11-17T05:11:02.369Z,54.43
2017-11-17T05:13:29.873Z,50.10
2017-11-17T05:15:58.121Z,50.13
2017-11-17T05:18:25.631Z,51.17
2017-11-17T05:20:53.890Z,63.00
2017-11-17T05:23:21.399Z,55.33
2017-11-17T05:25:48.894Z,68.77
2017-11-17T05:28:16.397Z,58.40
2017-11-17T05:30:43.893Z,82.13
2017-11-17T05:33:12.205Z,75.73
2017-11-17T05:35:39.681Z,71.93
2017-11-17T05:38:07.173Z,69.37
2017-11-17T05:40:34.679Z,81.07
2017-11-17T05:43:02.165Z,80.80
2017-11-17T05:45:29.669Z,69.30
2017-11-17T05:47:57.915Z,70.67
2017-11-17T05:50:25.425Z,65.23
2017-11-17T05:52:53.673Z,60.00
2017-11-17T05:55:21.165Z,56.20
2017-11-17T05:57:49.420Z,67.30
2017-11-17T06:00:16.921Z,58.60
2017-11-17T06:02:44.405Z,75.87
2017-11-17T06:05:12.670Z,54.67
2017-11-17T06:07:40.161Z,89.50
2017-11-17T06:10:08.437Z,82.43
2017-11-17T06:12:35.920Z,69.03
2017-11-17T06:15:04.185Z,60.77
2017-11-17T06:17:31.672Z,67.70
2017-11-17T06:19:59.943Z,72.63
2017-11-17T06:22:27.425Z,70.70
2017-11-17T06:24:54.931Z,86.30
2017-11-17T06:27:22.417Z,70.37
2017-11-17T06:29:49.925Z,89.43
2017-11-17T06:32:17.420Z,66.60
2017-11-17T06:34:45.666Z,65.53
2017-11-17T06:37:13.168Z,66.03
2017-11-17T06:39:41.408Z,63.63
2017-11-17T06:42:08.905Z,58.03
2017-11-17T06:44:36.389Z,74.93
2017-11-17T06:47:03.893Z,67.63
2017-11-17T06:49:31.381Z,80.97
2017-11-17T06:51:58.905Z,69.37
2017-11-17T06:54:27.157Z,60.23
2017-11-17T06:56:54.666Z,57.20
2017-11-17T06:59:22.916Z,59.33
2017-11-17T07:01:50.432Z,87.97
2017-11-17T07:04:18.680Z,83.37
2017-11-17T07:06:46.180Z,81.97
2017-11-17T07:09:13.656Z,84.90
2017-11-17T07:11:41.934Z,92.60
2017-11-17T07:14:09.425Z,105.57
2017-11-17T07:16:37.696Z,83.67
2017-11-17T07:19:05.945Z,75.20
2017-11-17T07:21:33.446Z,76.60
2017-11-17T07:24:00.924Z,71.63
2017-11-17T07:26:29.203Z,87.93
2017-11-17T07:28:56.684Z,96.10
2017-11-17T07:31:24.952Z,73.87
2017-11-17T07:33:52.433Z,77.30
2017-11-17T07:36:19.952Z,63.70
2017-11-17T07:38:47.446Z,77.17
2017-11-17T07:41:14.928Z,110.97
2017-11-17T07:43:42.426Z,76.97
2017-11-17T07:46:10.673Z,86.23
2017-11-17T07:48:38.169Z,75.33
2017-11-17T07:51:05.649Z,80.90
2017-11-17T07:53:33.912Z,75.20
2017-11-17T07:56:01.388Z,86.37
2017-11-17T07:58:28.885Z,78.23
2017-11-17T08:00:57.143Z,93.93
2017-11-17T08:03:24.640Z,81.63
2017-11-17T08:05:52.122Z,90.37
2017-11-17T08:08:19.629Z,73.67
2017-11-17T08:10:47.115Z,91.90
2017-11-17T08:13:14.626Z,65.40
2017-11-17T08:15:42.873Z,65.00
2017-11-17T08:18:22.230Z,84.03
2017-11-17T08:20:49.713Z,85.80
2017-11-17T08:23:17.223Z,74.67
2017-11-17T08:25:44.704Z,70.53
2017-11-17T08:28:12.217Z,76.10
2017-11-17T08:30:39.704Z,77.50
2017-11-17T08:33:07.978Z,65.30
2017-11-17T08:35:35.465Z,71.23
2017-11-17T08:38:03.717Z,72.77
2017-11-17T08:40:31.232Z,70.33
2017-11-17T08:42:59.482Z,72.43
2017-11-17T08:45:26.984Z,74.10
2017-11-17T08:47:55.242Z,73.03
2017-11-17T08:50:22.742Z,80.63
2017-11-17T08:52:50.998Z,69.53
2017-11-17T08:55:18.495Z,70.47
2017-11-17T08:57:46.745Z,65.50
2017-11-17T09:00:14.249Z,64.80
2017-11-17T09:02:42.497Z,66.40
2017-11-17T09:05:10.000Z,75.60
2017-11-17T09:07:37.476Z,71.00
2017-11-17T09:10:05.740Z,88.53
2017-11-17T09:12:33.222Z,71.40
2017-11-17T09:15:00.725Z,68.27
2017-11-17T09:17:28.969Z,78.00
2017-11-17T09:19:56.496Z,82.50
2017-11-17T09:22:23.986Z,85.93
2017-11-17T09:24:51.489Z,75.33
2017-11-17T09:27:18.969Z,91.37
2017-11-17T09:29:46.478Z,98.30
2017-11-17T09:32:13.970Z,86.20
2017-11-17T09:34:41.478Z,75.70
2017-11-17T09:37:08.961Z,79.33
2017-11-17T09:39:37.209Z,80.97
2017-11-17T09:42:04.706Z,112.73
2017-11-17T09:44:32.188Z,93.37
2017-11-17T09:47:00.457Z,86.80
2017-11-17T09:49:27.941Z,99.63
2017-11-17T09:51:55.467Z,100.67
2017-11-17T09:54:22.945Z,90.23
2017-11-17T09:56:50.458Z,104.87
2017-11-17T09:59:18.721Z,99.50
2017-11-17T10:01:46.218Z,93.80
2017-11-17T10:04:14.474Z,104.80
2017-11-17T10:06:41.981Z,103.70
2017-11-17T10:09:10.233Z,117.67
2017-11-17T10:11:37.744Z,113.93
2017-11-17T10:14:05.230Z,97.80
2017-11-17T10:16:32.745Z,88.93
2017-11-17T10:19:00.228Z,83.37
2017-11-17T10:21:27.749Z,96.63
2017-11-17T10:23:56.005Z,94.47
2017-11-17T10:26:24.273Z,109.70
2017-11-17T10:28:51.765Z,107.40
2017-11-17T10:31:20.032Z,83.23
2017-11-17T10:33:47.517Z,92.17
2017-11-17T10:36:15.765Z,88.10
2017-11-17T10:38:43.269Z,92.80
2017-11-17T10:41:10.752Z,93.77
2017-11-17T10:43:39.027Z,92.93
2017-11-17T10:46:07.287Z,89.40
2017-11-17T10:48:34.792Z,98.23
2017-11-17T10:51:03.098Z,93.23
2017-11-17T10:53:31.349Z,96.37
2017-11-17T10:55:58.840Z,97.30
2017-11-17T10:58:27.113Z,119.60
2017-11-17T11:00:54.593Z,86.23
2017-11-17T11:03:22.861Z,100.40
2017-11-17T11:05:50.345Z,78.10
2017-11-17T11:08:18.616Z,87.57
2017-11-17T11:10:46.127Z,93.40
2017-11-17T11:13:13.656Z,90.70
2017-11-17T11:15:41.145Z,88.83
2017-11-17T11:18:09.421Z,100.17
2017-11-17T11:20:36.909Z,88.27
2017-11-17T11:23:05.182Z,77.20
2017-11-17T11:25:33.442Z,88.43
2017-11-17T11:28:00.937Z,85.07
2017-11-17T11:30:28.420Z,89.53
2017-11-17T11:32:56.685Z,90.83
2017-11-17T11:35:24.174Z,73.57
2017-11-17T11:37:51.654Z,86.93
2017-11-17T11:40:19.929Z,83.53
2017-11-17T11:42:47.417Z,83.60
2017-11-17T11:45:15.684Z,85.27
2017-11-17T11:47:43.172Z,80.97
2017-11-17T11:50:11.441Z,98.23
2017-11-17T11:52:38.934Z,102.83
2017-11-17T11:55:07.205Z,95.40
2017-11-17T11:57:34.693Z,88.40
2017-11-17T12:00:02.201Z,71.13
2017-11-17T12:02:29.679Z,89.73
2017-11-17T12:04:57.185Z,93.27
2017-11-17T12:07:24.660Z,92.23
2017-11-17T12:09:52.925Z,77.53
2017-11-17T12:12:20.416Z,80.33
2017-11-17T12:14:48.684Z,74.50
2017-11-17T12:17:16.185Z,78.40
2017-11-17T12:19:44.449Z,75.17
2017-11-17T12:22:11.932Z,81.40
2017-11-17T12:24:39.441Z,87.93
2017-11-17T12:27:06.925Z,72.67
2017-11-17T12:29:34.442Z,120.50
2017-11-17T12:32:02.702Z,106.97
2017-11-17T12:34:30.210Z,87.60
2017-11-17T12:36:58.465Z,86.50
2017-11-17T12:39:26.757Z,73.70
2017-11-17T12:41:54.238Z,92.50
2017-11-17T12:44:21.726Z,72.53
2017-11-17T12:46:49.989Z,74.80
2017-11-17T12:49:17.472Z,75.57
2017-11-17T12:51:44.981Z,73.13
2017-11-17T12:54:13.229Z,80.03
2017-11-17T12:56:40.746Z,86.97
2017-11-17T12:59:08.233Z,80.63
2017-11-17T13:01:35.733Z,77.27
2017-11-17T13:04:03.215Z,75.80
2017-11-17T13:06:31.485Z,79.90
2017-11-17T13:08:58.971Z,82.23
2017-11-17T13:11:27.246Z,84.57
2017-11-17T13:13:54.736Z,82.27
2017-11-17T13:16:22.997Z,81.20
2017-11-17T13:18:50.480Z,77.10
2017-11-17T13:21:18.761Z,79.13
2017-11-17T13:23:46.258Z,88.10
2017-11-17T13:26:14.523Z,83.50
2017-11-17T13:28:42.009Z,75.60
2017-11-17T13:31:10.288Z,93.03
2017-11-17T13:33:38.541Z,84.40
2017-11-17T13:36:06.045Z,84.20
2017-11-17T13:38:33.529Z,85.90
2017-11-17T13:41:01.798Z,76.67
2017-11-17T13:43:29.281Z,88.90
2017-11-17T13:45:57.557Z,108.47
2017-11-17T13:48:25.045Z,96.30
2017-11-17T13:50:53.293Z,74.77
2017-11-17T13:53:20.798Z,72.90
2017-11-17T13:55:49.048Z,81.87
2017-11-17T13:58:16.549Z,77.77
2017-11-17T14:00:44.798Z,80.70
2017-11-17T14:03:12.296Z,80.40
2017-11-17T14:05:39.785Z,78.10
2017-11-17T14:08:08.052Z,70.37
2017-11-17T14:10:35.532Z,82.00
2017-11-17T14:13:03.804Z,77.80
2017-11-17T14:15:31.292Z,79.20
2017-11-17T14:17:59.557Z,84.50
2017-11-17T14:20:27.053Z,80.43
2017-11-17T14:22:54.553Z,95.20
2017-11-17T14:25:22.033Z,89.13
2017-11-17T14:27:49.538Z,86.03
2017-11-17T14:30:17.017Z,87.57
2017-11-17T14:32:44.522Z,115.30
2017-11-17T14:35:12.018Z,84.47
2017-11-17T14:37:39.601Z,99.00
2017-11-17T14:40:07.083Z,90.87
2017-11-17T14:42:34.600Z,98.80
2017-11-17T14:45:02.085Z,89.90
2017-11-17T14:47:29.584Z,84.90
2017-11-17T14:49:57.065Z,86.40
2017-11-17T14:52:24.553Z,85.67
2017-11-17T14:54:52.063Z,94.17
2017-11-17T14:57:19.548Z,91.60
2017-11-17T14:59:47.054Z,87.77
2017-11-17T15:02:14.537Z,83.47
2017-11-17T15:04:42.044Z,97.50
2017-11-17T15:07:09.530Z,86.03
2017-11-17T15:09:37.037Z,103.37
2017-11-17T15:12:04.529Z,100.97
2017-11-17T15:14:32.802Z,122.17
2017-11-17T15:17:00.294Z,107.13
2017-11-17T15:19:28.560Z,112.40
2017-11-17T15:21:56.045Z,99.73
2017-11-17T15:24:24.309Z,96.87
2017-11-17T15:26:51.789Z,98.47
2017-11-17T15:29:19.293Z,100.27
2017-11-17T15:31:46.771Z,86.67
2017-11-17T15:34:14.275Z,97.57
2017-11-17T15:36:41.761Z,101.77
2017-11-17T15:39:09.273Z,98.97
2017-11-17T15:41:36.765Z,113.20
2017-11-17T15:44:04.269Z,101.87
2017-11-17T15:46:31.758Z,125.00
2017-11-17T15:49:00.041Z,106.63
2017-11-17T15:51:28.293Z,108.07
2017-11-17T15:53:55.778Z,111.57
2017-11-17T15:56:23.294Z,109.63
2017-11-17T15:58:50.780Z,113.80
2017-11-17T16:01:18.297Z,105.03
2017-11-17T16:03:45.781Z,97.70
2017-11-17T16:06:14.049Z,99.57
2017-11-17T16:08:41.541Z,111.63
2017-11-17T16:11:09.805Z,113.23
2017-11-17T16:13:37.293Z,114.60
2017-11-17T16:16:05.570Z,129.50
2017-11-17T16:18:33.049Z,129.07
2017-11-17T16:21:00.557Z,113.13
2017-11-17T16:23:28.040Z,123.33
2017-11-17T16:25:55.554Z,117.73
2017-11-17T16:28:23.045Z,120.27
2017-11-17T16:30:51.322Z,121.33
2017-11-17T16:33:19.574Z,126.43
2017-11-17T16:35:47.086Z,116.03
2017-11-17T16:38:15.342Z,151.97
2017-11-17T16:40:42.848Z,108.90
2017-11-17T16:43:11.093Z,107.70
2017-11-17T16:45:38.634Z,116.40
2017-11-17T16:48:06.857Z,109.80
2017-11-17T16:50:34.425Z,113.80
2017-11-17T16:53:01.913Z,137.93
2017-11-17T16:55:29.402Z,123.13
2017-11-17T16:57:57.676Z,115.77
2017-11-17T17:00:25.161Z,100.40
2017-11-17T17:02:53.437Z,135.97
2017-11-17T17:05:21.702Z,142.13
2017-11-17T17:07:49.212Z,130.47
2017-11-17T17:10:17.465Z,119.83
2017-11-17T17:12:44.973Z,172.50
2017-11-17T17:15:13.220Z,112.73
2017-11-17T17:17:40.728Z,135.53
2017-11-17T17:20:08.978Z,102.10
2017-11-17T17:22:36.480Z,110.80
2017-11-17T17:25:04.728Z,95.10
2017-11-17T17:27:32.241Z,102.13
2017-11-17T17:30:00.497Z,105.13
2017-11-17T17:32:28.005Z,101.30
2017-11-17T17:34:56.259Z,113.57
2017-11-17T17:37:23.761Z,93.20
2017-11-17T17:39:52.009Z,105.13
2017-11-17T17:42:19.514Z,111.97
2017-11-17T17:44:47.771Z,112.00
2017-11-17T17:47:15.273Z,112.50
2017-11-17T17:49:43.528Z,106.13
2017-11-17T17:52:11.040Z,118.67
2017-11-17T17:54:39.289Z,127.10
2017-11-17T17:57:06.781Z,133.70
2017-11-17T17:59:34.289Z,114.23
2017-11-17T18:02:01.781Z,136.23
2017-11-17T18:04:29.285Z,115.17
2017-11-17T18:06:56.769Z,134.33
2017-11-17T18:09:25.041Z,129.27
2017-11-17T18:11:52.530Z,112.67
2017-11-17T18:14:20.813Z,105.93
2017-11-17T18:16:49.105Z,157.50
2017-11-17T18:19:17.390Z,111.50
2017-11-17T18:21:45.697Z,108.57
2017-11-17T18:24:13.179Z,100.07
2017-11-17T18:26:40.672Z,100.53
2017-11-17T18:29:08.181Z,111.10
2017-11-17T18:31:35.672Z,102.93
2017-11-17T18:34:03.196Z,109.73
2017-11-17T18:36:30.718Z,116.47
2017-11-17T18:38:58.978Z,112.97
2017-11-17T18:41:26.468Z,107.27
2017-11-17T18:43:54.791Z,119.90
2017-11-17T18:46:23.005Z,123.90
2017-11-17T18:48:50.505Z,118.13
2017-11-17T18:51:18.787Z,120.13
2017-11-17T18:53:46.276Z,105.13
2017-11-17T18:56:14.535Z,99.87
2017-11-17T18:58:42.035Z,89.93
2017-11-17T19:01:09.565Z,87.73
2017-11-17T19:03:37.055Z,108.00
2017-11-17T19:06:04.548Z,116.40
2017-11-17T19:08:32.076Z,98.43
2017-11-17T19:10:59.560Z,94.53
2017-11-17T19:13:27.072Z,93.10
2017-11-17T19:15:55.333Z,100.60
2017-11-17T19:18:23.585Z,100.40
2017-11-17T19:20:51.089Z,103.87
2017-11-17T19:23:19.341Z,104.53
2017-11-17T19:25:46.841Z,93.77
2017-11-17T19:28:14.349Z,98.97
2017-11-17T19:30:41.884Z,99.43
2017-11-17T19:33:09.373Z,128.33
2017-11-17T19:35:37.641Z,119.63
2017-11-17T19:38:05.131Z,120.00
2017-11-17T19:40:33.403Z,113.47
2017-11-17T19:43:00.908Z,107.40
2017-11-17T19:45:28.411Z,93.63
2017-11-17T19:47:55.900Z,100.37
2017-11-17T19:50:23.404Z,97.23
2017-11-17T19:52:51.230Z,102.43
2017-11-17T19:55:18.967Z,120.20
2017-11-17T19:57:46.449Z,111.97
2017-11-17T20:00:13.964Z,98.93
2017-11-17T20:02:41.461Z,119.10
2017-11-17T20:05:09.709Z,111.13
2017-11-17T20:07:37.221Z,117.50
2017-11-17T20:10:04.721Z,122.27
2017-11-17T20:12:32.221Z,128.20
2017-11-17T20:14:59.706Z,114.67
2017-11-17T20:17:27.205Z,191.07
2017-11-17T20:19:54.688Z,121.87
2017-11-17T20:22:22.969Z,114.07
2017-11-17T20:24:50.456Z,119.00
2017-11-17T20:27:17.984Z,111.13
2017-11-17T20:29:46.245Z,99.43
2017-11-17T20:32:13.785Z,91.00
2017-11-17T20:34:41.279Z,109.87
2017-11-17T20:37:08.805Z,104.23
2017-11-17T20:39:36.289Z,108.53
2017-11-17T20:42:04.564Z,105.83
2017-11-17T20:44:32.048Z,97.03
2017-11-17T20:46:59.568Z,126.30
2017-11-17T20:49:27.056Z,100.57
2017-11-17T20:51:55.330Z,97.77
2017-11-17T20:54:24.418Z,95.37
2017-11-17T20:56:51.929Z,106.47
2017-11-17T20:59:20.189Z,102.17
2017-11-17T21:01:47.694Z,107.43
2017-11-17T21:04:15.177Z,86.57
2017-11-17T21:06:42.690Z,97.90
2017-11-17T21:09:10.173Z,98.13
2017-11-17T21:11:37.656Z,100.50
2017-11-17T21:14:05.937Z,93.30
2017-11-17T21:16:33.421Z,102.57
2017-11-17T21:19:01.691Z,96.27
2017-11-17T21:21:29.183Z,88.37
2017-11-17T21:23:56.709Z,97.93
2017-11-17T21:26:24.190Z,86.93
2017-11-17T21:28:51.696Z,89.50
2017-11-17T21:31:19.942Z,106.33
2017-11-17T21:33:47.445Z,84.00
2017-11-17T21:36:15.712Z,111.40
2017-11-17T21:38:43.233Z,95.00
2017-11-17T21:41:10.725Z,106.70
2017-11-17T21:43:38.232Z,97.90
2017-11-17T21:46:05.722Z,103.87
2017-11-17T21:48:34.001Z,99.07
2017-11-17T21:51:04.184Z,113.07
2017-11-17T21:53:31.709Z,100.13
2017-11-17T21:55:59.973Z,101.60
2017-11-17T21:58:27.485Z,101.40
2017-11-17T22:00:54.963Z,86.07
2017-11-17T22:03:22.471Z,85.93
2017-11-17T22:05:49.968Z,81.17
2017-11-17T22:08:18.243Z,86.27
2017-11-17T22:10:45.745Z,87.20
2017-11-17T22:13:13.230Z,84.10
2017-11-17T22:15:41.511Z,79.43
2017-11-17T22:18:08.993Z,74.87
2017-11-17T22:20:36.497Z,82.73
2017-11-17T22:23:03.981Z,91.77
2017-11-17T22:25:31.489Z,103.63
2017-11-17T22:27:58.968Z,91.50
2017-11-17T22:30:26.481Z,97.67
2017-11-17T22:32:53.968Z,101.80
2017-11-17T22:35:21.470Z,103.40
2017-11-17T22:37:48.962Z,100.57
2017-11-17T22:40:16.464Z,117.70
2017-11-17T22:42:43.948Z,105.87
2017-11-17T22:45:11.465Z,111.40
2017-11-17T22:47:38.953Z,113.77
2017-11-17T22:50:06.483Z,95.63
2017-11-17T22:52:34.723Z,99.87
2017-11-17T22:55:02.230Z,98.30
2017-11-17T22:57:30.485Z,117.67
2017-11-17T22:59:57.989Z,99.37
2017-11-17T23:02:26.247Z,104.57
2017-11-17T23:04:53.757Z,98.50
2017-11-17T23:07:22.005Z,98.37
2017-11-17T23:09:49.521Z,111.87
2017-11-17T23:12:17.005Z,95.53
2017-11-17T23:14:44.493Z,108.17
2017-11-17T23:17:11.993Z,124.07
2017-11-17T23:19:39.482Z,123.30
2017-11-17T23:22:07.768Z,113.77
2017-11-17T23:24:36.022Z,130.37
2017-11-17T23:27:03.529Z,116.47
2017-11-17T23:29:31.776Z,105.10
2017-11-17T23:31:59.290Z,104.73
2017-11-17T23:34:27.537Z,126.97
2017-11-17T23:36:55.101Z,116.23
2017-11-17T23:39:22.585Z,112.30
2017-11-17T23:41:50.090Z,132.33
2017-11-17T23:44:18.346Z,132.17
2017-11-17T23:46:45.853Z,136.37
2017-11-17T23:49:14.110Z,136.53
2017-11-17T23:51:41.626Z,134.90
2017-11-17T23:54:09.108Z,142.57
2017-11-17T23:56:36.615Z,143.33
2017-11-17T23:59:04.106Z,141.07
